Time;durP1;ratioP1;P1;durP2;ratioP2;P2;SDS_P1;SDS_P2;PMS_P1;PMS_P2;Temp;Humidity;BMP_temperature;BMP_pressure;BME280_temperature;BME280_humidity;BME280_pressure;Samples;Min_cycle;Max_cycle;Signal;HPM_P1;HPM_P2
2021/06/17 00:01:57;;;;;;;;;2.00;1.00;;;;;;;;5092389;28;8754;-41
2021/06/17 00:04:22;;;;;;;;;2.00;1.67;;;;;;;;5091878;28;8798;-40
2021/06/17 00:06:48;;;;;;;;;2.00;1.33;;;;;;;;5092855;28;8786;-40
2021/06/17 00:09:13;;;;;;;;;1.00;1.00;;;;;;;;5093816;28;8779;-40
2021/06/17 00:11:38;;;;;;;;;1.33;1.33;;;;;;;;5096188;28;8787;-40
2021/06/17 00:14:04;;;;;;;;;2.00;1.67;;;;;;;;5094485;28;8775;-40
2021/06/17 00:16:29;;;;;;;;;1.00;1.00;;;;;;;;5097306;28;8799;-41
2021/06/17 00:18:55;;;;;;;;;1.00;0.67;;;;;;;;5091617;28;9633;-40
2021/06/17 00:21:20;;;;;;;;;2.00;1.67;;;;;;;;5093567;28;8814;-40
2021/06/17 00:23:45;;;;;;;;;2.00;2.00;;;;;;;;5097535;28;8785;-40
2021/06/17 00:26:10;;;;;;;;;1.00;1.00;;;;;;;;5095601;28;9353;-40
2021/06/17 00:28:36;;;;;;;;;1.00;1.00;;;;;;;;5095957;28;9455;-40
2021/06/17 00:31:01;;;;;;;;;1.33;1.33;;;;;;;;5095279;28;8771;-40
2021/06/17 00:33:26;;;;;;;;;1.67;1.00;;;;;;;;5094199;28;8803;-40
2021/06/17 00:35:52;;;;;;;;;1.00;1.00;;;;;;;;5094431;28;8791;-41
2021/06/17 00:38:17;;;;;;;;;1.00;1.00;;;;;;;;5093717;28;9650;-41
2021/06/17 00:40:43;;;;;;;;;2.00;1.67;;;;;;;;5092487;28;8725;-41
2021/06/17 00:43:09;;;;;;;;;2.00;2.00;;;;;;;;5097392;28;8755;-41
2021/06/17 00:45:36;;;;;;;;;2.00;2.00;;;;;;;;5095648;28;9593;-41
2021/06/17 00:48:02;;;;;;;;;1.75;1.75;;;;;;;;5091869;28;8751;-41
2021/06/17 00:50:30;;;;;;;;;2.25;1.25;;;;;;;;5091855;28;8847;-40
2021/06/17 00:52:56;;;;;;;;;1.00;1.00;;;;;;;;5100078;28;8790;-40
2021/06/17 00:55:21;;;;;;;;;1.00;1.00;;;;;;;;5095872;28;8819;-41
2021/06/17 00:57:46;;;;;;;;;1.00;1.00;;;;;;;;5094065;28;8787;-41
2021/06/17 01:00:13;;;;;;;;;1.00;1.00;;;;;;;;5095306;28;8850;-41
2021/06/17 01:02:38;;;;;;;;;2.00;1.50;;;;;;;;5091344;28;8781;-41
2021/06/17 01:05:07;;;;;;;;;2.00;2.00;;;;;;;;5090671;28;9572;-41
2021/06/17 01:07:43;;;;;;;;;1.75;1.00;;;;;;;;5089092;28;8875;-41
2021/06/17 01:10:12;;;;;;;;;1.00;1.00;;;;;;;;5095739;28;8781;-41
2021/06/17 01:12:57;;;;;;;;;1.00;1.00;;;;;;;;5092791;28;8817;-41
2021/06/17 01:15:23;;;;;;;;;1.50;1.50;;;;;;;;5097188;28;8874;-41
2021/06/17 01:17:55;;;;;;;;;1.00;1.00;;;;;;;;5090256;28;8765;-40
2021/06/17 01:20:24;;;;;;;;;1.00;1.00;;;;;;;;5095381;28;8847;-41
2021/06/17 01:22:51;;;;;;;;;2.50;1.75;;;;;;;;5091648;28;8733;-40
2021/06/17 01:25:35;;;;;;;;;1.00;1.00;;;;;;;;5094584;28;8818;-41
2021/06/17 01:28:13;;;;;;;;;1.00;1.00;;;;;;;;5095630;28;8864;-41
2021/06/17 01:30:41;;;;;;;;;2.00;2.00;;;;;;;;5097443;28;8779;-40
2021/06/17 01:33:06;;;;;;;;;1.25;1.25;;;;;;;;5093474;28;8762;-41
2021/06/17 01:35:35;;;;;;;;;1.67;1.67;;;;;;;;5097770;28;8794;-40
2021/06/17 01:38:02;;;;;;;;;1.00;1.00;;;;;;;;5095081;28;9545;-41
2021/06/17 01:40:30;;;;;;;;;1.50;1.50;;;;;;;;5096880;28;8785;-41
2021/06/17 01:42:56;;;;;;;;;1.00;1.00;;;;;;;;5099375;28;8771;-41
2021/06/17 01:45:22;;;;;;;;;1.50;1.50;;;;;;;;5097756;28;8758;-41
2021/06/17 01:47:50;;;;;;;;;1.00;1.00;;;;;;;;5097443;28;8784;-40
2021/06/17 01:50:16;;;;;;;;;2.00;1.00;;;;;;;;5100044;28;8778;-41
2021/06/17 01:52:41;;;;;;;;;1.00;1.00;;;;;;;;5098619;28;9451;-41
2021/06/17 01:55:07;;;;;;;;;1.00;1.00;;;;;;;;5098211;28;8787;-40
2021/06/17 01:57:33;;;;;;;;;2.00;1.00;;;;;;;;5099692;28;8755;-41
2021/06/17 01:59:59;;;;;;;;;2.00;2.00;;;;;;;;5095445;28;8837;-41
2021/06/17 02:02:25;;;;;;;;;1.00;1.00;;;;;;;;5097146;28;8771;-41
2021/06/17 02:04:51;;;;;;;;;1.50;1.50;;;;;;;;5096905;28;8775;-41
2021/06/17 02:07:18;;;;;;;;;1.25;1.25;;;;;;;;5097793;28;8817;-41
2021/06/17 02:09:44;;;;;;;;;1.00;1.00;;;;;;;;5097543;28;9485;-41
2021/06/17 02:12:09;;;;;;;;;1.33;0.67;;;;;;;;5096608;28;8811;-41
2021/06/17 02:14:35;;;;;;;;;1.00;1.00;;;;;;;;5097980;28;8744;-42
2021/06/17 02:17:01;;;;;;;;;3.00;2.00;;;;;;;;5097010;28;8909;-41
2021/06/17 02:19:28;;;;;;;;;1.67;1.67;;;;;;;;5099218;28;8871;-42
2021/06/17 02:21:54;;;;;;;;;2.00;2.00;;;;;;;;5100542;28;9131;-41
2021/06/17 02:24:21;;;;;;;;;1.25;1.25;;;;;;;;5094602;28;8757;-41
2021/06/17 02:26:48;;;;;;;;;1.25;1.25;;;;;;;;5098742;28;8813;-41
2021/06/17 02:29:16;;;;;;;;;1.00;1.00;;;;;;;;5095701;28;8802;-41
2021/06/17 02:31:42;;;;;;;;;2.00;2.00;;;;;;;;5100281;28;8762;-41
2021/06/17 02:34:08;;;;;;;;;1.00;1.00;;;;;;;;5096624;28;8843;-41
2021/06/17 02:36:33;;;;;;;;;1.67;1.67;;;;;;;;5099238;28;8798;-41
2021/06/17 02:39:00;;;;;;;;;1.67;1.00;;;;;;;;5094402;28;12115;-41
2021/06/17 02:41:26;;;;;;;;;2.00;2.00;;;;;;;;5097506;28;8760;-41
2021/06/17 02:43:57;;;;;;;;;1.00;1.00;;;;;;;;5095021;28;8781;-40
2021/06/17 02:46:22;;;;;;;;;1.00;1.00;;;;;;;;5101654;28;8913;-41
2021/06/17 02:48:48;;;;;;;;;2.00;2.00;;;;;;;;5097720;28;8880;-41
2021/06/17 02:51:13;;;;;;;;;1.25;1.25;;;;;;;;5096019;28;8919;-41
2021/06/17 02:53:39;;;;;;;;;1.00;1.00;;;;;;;;5094397;28;8782;-41
2021/06/17 02:56:09;;;;;;;;;2.00;2.00;;;;;;;;5097120;28;8872;-40
2021/06/17 02:58:35;;;;;;;;;1.25;1.25;;;;;;;;5099212;28;9427;-40
2021/06/17 03:01:05;;;;;;;;;2.00;1.33;;;;;;;;5096663;28;8854;-40
2021/06/17 03:03:36;;;;;;;;;2.00;2.00;;;;;;;;5094369;28;8795;-40
2021/06/17 03:06:02;;;;;;;;;1.00;1.00;;;;;;;;5095900;28;9461;-40
2021/06/17 03:08:30;;;;;;;;;1.67;1.67;;;;;;;;5094896;28;8803;-41
2021/06/17 03:10:57;;;;;;;;;1.75;1.75;;;;;;;;5096969;28;8781;-40
2021/06/17 03:13:24;;;;;;;;;2.00;2.00;;;;;;;;5097335;28;8826;-41
2021/06/17 03:15:50;;;;;;;;;1.00;1.00;;;;;;;;5096137;28;8767;-41
2021/06/17 03:18:17;;;;;;;;;2.00;2.00;;;;;;;;5095169;28;8765;-40
2021/06/17 03:20:43;;;;;;;;;2.50;2.50;;;;;;;;5096127;28;8777;-40
2021/06/17 03:23:11;;;;;;;;;1.75;1.50;;;;;;;;5097276;28;8763;-41
2021/06/17 03:25:37;;;;;;;;;2.00;2.00;;;;;;;;5094131;28;8859;-40
2021/06/17 03:28:03;;;;;;;;;1.25;1.25;;;;;;;;5102918;28;8807;-40
2021/06/17 03:30:29;;;;;;;;;1.33;1.33;;;;;;;;5094289;28;9353;-40
2021/06/17 03:32:57;;;;;;;;;2.00;1.67;;;;;;;;5098474;28;9596;-40
2021/06/17 03:35:22;;;;;;;;;1.50;1.50;;;;;;;;5094949;28;8778;-40
2021/06/17 03:37:49;;;;;;;;;1.33;1.33;;;;;;;;5098513;28;8731;-40
2021/06/17 03:40:14;;;;;;;;;2.00;2.00;;;;;;;;5097801;28;8799;-40
2021/06/17 03:42:41;;;;;;;;;1.33;1.33;;;;;;;;5097408;28;9195;-40
2021/06/17 03:45:06;;;;;;;;;0.50;0.50;;;;;;;;5092986;28;8904;-42
2021/06/17 03:47:32;;;;;;;;;1.00;1.00;;;;;;;;5093493;28;9009;-42
2021/06/17 03:49:58;;;;;;;;;2.00;2.00;;;;;;;;5091299;28;8793;-40
2021/06/17 03:52:24;;;;;;;;;2.00;2.00;;;;;;;;5096398;28;8803;-41
2021/06/17 03:54:50;;;;;;;;;2.25;2.00;;;;;;;;5096408;28;8764;-40
2021/06/17 03:57:19;;;;;;;;;1.00;1.00;;;;;;;;5092033;28;8781;-40
2021/06/17 03:59:44;;;;;;;;;2.00;2.00;;;;;;;;5094357;28;8790;-40
2021/06/17 04:02:10;;;;;;;;;1.00;1.00;;;;;;;;5097940;28;10651;-40
2021/06/17 04:04:36;;;;;;;;;1.75;1.75;;;;;;;;5091757;28;8776;-40
2021/06/17 04:07:06;;;;;;;;;2.00;2.00;;;;;;;;5100160;28;9347;-40
2021/06/17 04:09:33;;;;;;;;;1.75;1.75;;;;;;;;5092447;28;8826;-41
2021/06/17 04:12:08;;;;;;;;;3.00;2.50;;;;;;;;5098190;28;8827;-40
2021/06/17 04:14:35;;;;;;;;;2.00;2.00;;;;;;;;5095988;28;8784;-41
2021/06/17 04:17:00;;;;;;;;;1.00;1.00;;;;;;;;5098780;28;8889;-40
2021/06/17 04:19:27;;;;;;;;;1.33;1.33;;;;;;;;5097168;28;8913;-41
2021/06/17 04:21:55;;;;;;;;;2.00;2.00;;;;;;;;5095599;28;8756;-41
2021/06/17 04:24:22;;;;;;;;;1.00;1.00;;;;;;;;5091628;28;8865;-41
2021/06/17 04:26:47;;;;;;;;;2.00;2.00;;;;;;;;5093364;28;8752;-41
2021/06/17 04:29:16;;;;;;;;;3.00;3.00;;;;;;;;5094136;28;8774;-41
2021/06/17 04:31:43;;;;;;;;;3.00;3.00;;;;;;;;5095836;28;8749;-41
2021/06/17 04:34:09;;;;;;;;;2.50;2.50;;;;;;;;5095031;28;8775;-40
2021/06/17 04:36:34;;;;;;;;;2.00;2.00;;;;;;;;5096558;28;8763;-41
2021/06/17 04:38:59;;;;;;;;;2.67;2.67;;;;;;;;5094199;28;8773;-41
2021/06/17 04:41:24;;;;;;;;;2.00;2.00;;;;;;;;5098025;28;8918;-41
2021/06/17 04:43:49;;;;;;;;;2.00;2.00;;;;;;;;5093676;28;8799;-41
2021/06/17 04:46:17;;;;;;;;;1.00;1.00;;;;;;;;5098283;28;8843;-40
2021/06/17 04:48:43;;;;;;;;;1.25;1.00;;;;;;;;5089750;28;8812;-41
2021/06/17 04:51:10;;;;;;;;;2.00;2.00;;;;;;;;5095776;28;8817;-40
2021/06/17 04:53:35;;;;;;;;;2.00;1.25;;;;;;;;5092956;28;9385;-41
2021/06/17 04:56:01;;;;;;;;;3.00;2.67;;;;;;;;5096998;28;8945;-41
2021/06/17 04:58:27;;;;;;;;;2.00;2.00;;;;;;;;5094558;28;8802;-41
2021/06/17 05:00:52;;;;;;;;;2.00;2.00;;;;;;;;5098409;28;8827;-41
2021/06/17 05:03:18;;;;;;;;;2.00;2.00;;;;;;;;5095976;28;8787;-41
2021/06/17 05:05:43;;;;;;;;;2.00;2.00;;;;;;;;5095380;28;8764;-40
2021/06/17 05:10:50;;;;;;;;;2.00;1.50;;;;;;;;5092164;28;8749;-40
2021/06/17 05:13:20;;;;;;;;;1.25;1.25;;;;;;;;5098757;28;8795;-40
2021/06/17 05:15:45;;;;;;;;;2.00;2.00;;;;;;;;5096152;28;8845;-40
2021/06/17 05:18:10;;;;;;;;;2.00;2.00;;;;;;;;5091400;28;8795;-40
2021/06/17 05:20:36;;;;;;;;;2.00;2.00;;;;;;;;5092048;28;8801;-41
2021/06/17 05:23:01;;;;;;;;;4.33;3.00;;;;;;;;5094886;28;8755;-41
2021/06/17 05:25:26;;;;;;;;;2.00;2.00;;;;;;;;5095352;28;8783;-42
2021/06/17 05:27:52;;;;;;;;;2.00;2.00;;;;;;;;5096596;28;8787;-41
2021/06/17 05:30:17;;;;;;;;;3.00;2.33;;;;;;;;5091972;28;8762;-41
2021/06/17 05:32:43;;;;;;;;;3.00;2.33;;;;;;;;5093227;28;8836;-41
2021/06/17 05:35:08;;;;;;;;;1.67;1.67;;;;;;;;5094267;28;9420;-41
2021/06/17 05:37:33;;;;;;;;;2.00;2.00;;;;;;;;5094386;28;8793;-41
2021/06/17 05:39:58;;;;;;;;;2.00;2.00;;;;;;;;5089322;28;8804;-42
2021/06/17 05:42:24;;;;;;;;;2.00;2.00;;;;;;;;5090861;28;8795;-43
2021/06/17 05:44:52;;;;;;;;;2.00;2.00;;;;;;;;5083493;28;8811;-42
2021/06/17 05:47:17;;;;;;;;;2.75;2.75;;;;;;;;5079556;28;8777;-43
2021/06/17 05:49:43;;;;;;;;;2.00;2.00;;;;;;;;5075619;28;8779;-43
2021/06/17 05:52:08;;;;;;;;;2.00;2.00;;;;;;;;5080028;28;8824;-42
2021/06/17 05:54:33;;;;;;;;;3.00;3.00;;;;;;;;5076982;28;8791;-43
2021/06/17 05:56:58;;;;;;;;;1.00;1.00;;;;;;;;5076940;28;8813;-45
2021/06/17 05:59:23;;;;;;;;;2.00;2.00;;;;;;;;5076981;28;8797;-43
2021/06/17 06:01:48;;;;;;;;;1.67;1.33;;;;;;;;5079909;28;8815;-44
2021/06/17 06:04:14;;;;;;;;;3.00;3.00;;;;;;;;5083138;28;8777;-43
2021/06/17 06:06:39;;;;;;;;;2.00;2.00;;;;;;;;5088811;28;9519;-44
2021/06/17 06:09:04;;;;;;;;;3.00;3.00;;;;;;;;5086739;28;8771;-43
2021/06/17 06:11:30;;;;;;;;;4.00;4.00;;;;;;;;5092054;28;8749;-40
2021/06/17 06:13:55;;;;;;;;;1.00;1.00;;;;;;;;5092531;28;8786;-40
2021/06/17 06:16:21;;;;;;;;;2.33;2.00;;;;;;;;5077883;28;8811;-40
2021/06/17 06:18:46;;;;;;;;;2.00;2.00;;;;;;;;5095438;28;8811;-40
2021/06/17 06:21:11;;;;;;;;;2.00;2.00;;;;;;;;5098878;28;9267;-40
2021/06/17 06:23:37;;;;;;;;;2.00;2.00;;;;;;;;5100262;28;8873;-40
2021/06/17 06:26:02;;;;;;;;;2.67;2.33;;;;;;;;5099222;28;8779;-40
2021/06/17 06:28:27;;;;;;;;;1.33;1.33;;;;;;;;5093225;28;8787;-40
2021/06/17 06:30:53;;;;;;;;;2.00;2.00;;;;;;;;5097361;28;8817;-40
2021/06/17 06:33:19;;;;;;;;;1.00;1.00;;;;;;;;5090314;28;8801;-41
2021/06/17 06:35:45;;;;;;;;;1.00;1.00;;;;;;;;5091576;28;8763;-40
2021/06/17 06:38:10;;;;;;;;;2.00;1.33;;;;;;;;5096412;28;8758;-40
2021/06/17 06:40:36;;;;;;;;;2.00;2.00;;;;;;;;5099066;28;9003;-41
2021/06/17 06:43:01;;;;;;;;;2.00;2.00;;;;;;;;5096472;28;8860;-40
2021/06/17 06:45:26;;;;;;;;;2.00;2.00;;;;;;;;5099068;28;8806;-40
2021/06/17 06:47:52;;;;;;;;;4.00;3.67;;;;;;;;5092270;28;8776;-40
2021/06/17 06:50:18;;;;;;;;;3.00;2.00;;;;;;;;5099267;28;8775;-40
2021/06/17 06:52:44;;;;;;;;;3.00;3.00;;;;;;;;5095701;28;8779;-40
2021/06/17 06:55:09;;;;;;;;;1.67;1.67;;;;;;;;5099689;28;8768;-40
2021/06/17 06:57:35;;;;;;;;;1.00;1.00;;;;;;;;5098817;28;8905;-40
2021/06/17 07:00:00;;;;;;;;;2.00;2.00;;;;;;;;5092882;28;8801;-40
2021/06/17 07:02:25;;;;;;;;;1.33;1.00;;;;;;;;5095793;28;8820;-40
2021/06/17 07:04:51;;;;;;;;;1.33;1.00;;;;;;;;5095826;28;8809;-40
2021/06/17 07:07:16;;;;;;;;;2.33;2.33;;;;;;;;5099583;28;8960;-41
2021/06/17 07:09:41;;;;;;;;;2.00;1.00;;;;;;;;5095214;28;8783;-40
2021/06/17 07:12:06;;;;;;;;;2.00;2.00;;;;;;;;5096967;28;8807;-40
2021/06/17 07:14:32;;;;;;;;;3.67;3.00;;;;;;;;5098012;28;8787;-40
2021/06/17 07:16:58;;;;;;;;;2.00;2.00;;;;;;;;5098636;28;8860;-41
2021/06/17 07:19:23;;;;;;;;;2.67;2.67;;;;;;;;5094406;28;10676;-40
2021/06/17 07:21:48;;;;;;;;;2.67;2.67;;;;;;;;5095574;28;8779;-41
2021/06/17 07:24:14;;;;;;;;;3.00;2.00;;;;;;;;5095212;28;9468;-40
2021/06/17 07:26:39;;;;;;;;;1.33;1.33;;;;;;;;5098460;28;8775;-40
2021/06/17 07:29:05;;;;;;;;;2.00;2.00;;;;;;;;5096452;28;8752;-40
2021/06/17 07:31:30;;;;;;;;;3.00;3.00;;;;;;;;5093140;28;8787;-40
2021/06/17 07:33:56;;;;;;;;;1.00;1.00;;;;;;;;5079479;28;8813;-40
2021/06/17 07:36:21;;;;;;;;;1.67;1.67;;;;;;;;5092727;28;8805;-43
2021/06/17 07:38:46;;;;;;;;;2.00;2.00;;;;;;;;5098779;28;8790;-40
2021/06/17 07:41:11;;;;;;;;;0.00;0.00;;;;;;;;5097896;28;8768;-40
2021/06/17 07:43:37;;;;;;;;;4.33;4.00;;;;;;;;5098156;28;8775;-40
2021/06/17 07:46:04;;;;;;;;;1.00;1.00;;;;;;;;5096165;28;8789;-41
2021/06/17 07:48:29;;;;;;;;;1.00;1.00;;;;;;;;5094149;28;8751;-40
2021/06/17 07:50:54;;;;;;;;;2.67;2.00;;;;;;;;5092452;28;8791;-40
2021/06/17 07:53:20;;;;;;;;;2.00;2.00;;;;;;;;5094934;28;9587;-40
2021/06/17 07:55:45;;;;;;;;;2.00;2.00;;;;;;;;5096365;28;8761;-40
2021/06/17 07:58:11;;;;;;;;;2.00;2.00;;;;;;;;5100721;28;9557;-40
2021/06/17 08:00:36;;;;;;;;;2.00;2.00;;;;;;;;5093598;28;8783;-40
2021/06/17 08:03:01;;;;;;;;;2.33;2.00;;;;;;;;5096535;28;8893;-41
2021/06/17 08:05:26;;;;;;;;;2.00;2.00;;;;;;;;5092667;28;8799;-40
2021/06/17 08:07:52;;;;;;;;;1.00;1.00;;;;;;;;5094303;28;9459;-41
2021/06/17 08:10:18;;;;;;;;;1.67;1.67;;;;;;;;5094009;28;9632;-40
2021/06/17 08:12:43;;;;;;;;;2.00;2.00;;;;;;;;5098235;28;8787;-41
2021/06/17 08:15:08;;;;;;;;;2.00;2.00;;;;;;;;5095131;28;8803;-40
2021/06/17 08:17:34;;;;;;;;;1.67;1.67;;;;;;;;5098044;28;8811;-40
2021/06/17 08:19:59;;;;;;;;;2.33;2.33;;;;;;;;5091155;28;8752;-40
2021/06/17 08:22:25;;;;;;;;;1.67;1.67;;;;;;;;5089789;28;8859;-41
2021/06/17 08:24:51;;;;;;;;;2.50;2.00;;;;;;;;5091369;28;8761;-40
2021/06/17 08:27:16;;;;;;;;;2.00;2.00;;;;;;;;5087909;28;8767;-40
2021/06/17 08:29:41;;;;;;;;;1.67;1.67;;;;;;;;5092365;28;8768;-40
2021/06/17 08:32:07;;;;;;;;;1.33;1.33;;;;;;;;5087768;28;8810;-41
2021/06/17 08:34:32;;;;;;;;;3.00;2.00;;;;;;;;5090616;28;8762;-40
2021/06/17 08:36:57;;;;;;;;;2.00;2.00;;;;;;;;5094896;28;8834;-40
2021/06/17 08:39:23;;;;;;;;;2.00;2.00;;;;;;;;5091965;28;8813;-40
2021/06/17 08:41:48;;;;;;;;;2.00;2.00;;;;;;;;5095830;28;8889;-40
2021/06/17 08:44:13;;;;;;;;;2.00;2.00;;;;;;;;5095814;28;8910;-40
2021/06/17 08:46:39;;;;;;;;;1.00;1.00;;;;;;;;5098121;28;8791;-40
2021/06/17 08:49:04;;;;;;;;;1.00;1.00;;;;;;;;5093556;28;8811;-40
2021/06/17 08:51:31;;;;;;;;;2.00;2.00;;;;;;;;5094848;28;8799;-40
2021/06/17 08:53:56;;;;;;;;;1.50;1.50;;;;;;;;5094321;28;8830;-40
2021/06/17 08:56:22;;;;;;;;;2.00;2.00;;;;;;;;5097664;28;9520;-40
2021/06/17 08:58:48;;;;;;;;;2.00;1.75;;;;;;;;5095535;28;8739;-41
2021/06/17 09:01:14;;;;;;;;;1.00;1.00;;;;;;;;5093864;28;8803;-40
2021/06/17 09:03:40;;;;;;;;;1.00;1.00;;;;;;;;5095131;28;8870;-40
2021/06/17 09:06:05;;;;;;;;;1.75;1.75;;;;;;;;5094167;28;8824;-40
2021/06/17 09:08:31;;;;;;;;;2.00;2.00;;;;;;;;5096712;28;8759;-40
2021/06/17 09:10:56;;;;;;;;;2.00;2.00;;;;;;;;5089177;28;8761;-40
2021/06/17 09:13:27;;;;;;;;;1.00;1.00;;;;;;;;5095588;28;8844;-41
2021/06/17 09:15:54;;;;;;;;;1.00;1.00;;;;;;;;5094817;28;8806;-40
2021/06/17 09:18:21;;;;;;;;;1.00;1.00;;;;;;;;5094498;28;8791;-40
2021/06/17 09:20:48;;;;;;;;;1.25;1.25;;;;;;;;5088287;28;8762;-40
2021/06/17 09:23:18;;;;;;;;;2.00;2.00;;;;;;;;5089786;28;8905;-40
2021/06/17 09:25:50;;;;;;;;;1.50;1.50;;;;;;;;5091010;28;8813;-41
2021/06/17 09:28:15;;;;;;;;;2.75;1.75;;;;;;;;5099413;28;8760;-40
2021/06/17 09:30:41;;;;;;;;;1.33;1.33;;;;;;;;5090915;28;8889;-40
2021/06/17 09:33:10;;;;;;;;;3.33;2.67;;;;;;;;5092076;28;8823;-40
2021/06/17 09:35:46;;;;;;;;;2.00;2.00;;;;;;;;5092590;28;9176;-41
2021/06/17 09:38:11;;;;;;;;;1.25;1.25;;;;;;;;5095196;28;8745;-40
2021/06/17 09:40:39;;;;;;;;;1.00;1.00;;;;;;;;5092542;28;8810;-41
2021/06/17 09:43:13;;;;;;;;;1.50;1.00;;;;;;;;5096785;28;8773;-40
2021/06/17 09:45:39;;;;;;;;;1.00;1.00;;;;;;;;5092659;28;8771;-40
2021/06/17 09:48:04;;;;;;;;;1.67;1.67;;;;;;;;5091538;28;8913;-41
2021/06/17 09:50:29;;;;;;;;;1.33;1.33;;;;;;;;5095537;28;8782;-41
2021/06/17 09:52:56;;;;;;;;;1.33;1.33;;;;;;;;5097233;28;8779;-40
2021/06/17 09:55:38;;;;;;;;;0.75;0.75;;;;;;;;5099957;28;8797;-41
2021/06/17 09:58:04;;;;;;;;;1.00;0.75;;;;;;;;5098111;28;8793;-41
2021/06/17 10:00:29;;;;;;;;;0.25;0.25;;;;;;;;5098041;28;8797;-41
2021/06/17 10:02:54;;;;;;;;;1.00;1.00;;;;;;;;5094706;28;8783;-40
2021/06/17 10:05:26;;;;;;;;;1.00;1.00;;;;;;;;5100478;28;8763;-41
2021/06/17 10:07:51;;;;;;;;;1.00;1.00;;;;;;;;5097165;28;8754;-41
2021/06/17 10:10:18;;;;;;;;;1.00;1.00;;;;;;;;5100336;28;8797;-41
2021/06/17 10:12:44;;;;;;;;;1.00;1.00;;;;;;;;5092102;28;8842;-41
2021/06/17 10:15:09;;;;;;;;;0.67;0.67;;;;;;;;5102250;28;8763;-41
2021/06/17 10:17:35;;;;;;;;;1.00;1.00;;;;;;;;5096042;28;9185;-41
2021/06/17 10:20:05;;;;;;;;;1.00;1.00;;;;;;;;5098280;28;8739;-41
2021/06/17 10:22:32;;;;;;;;;0.00;0.00;;;;;;;;5094561;28;8856;-41
2021/06/17 10:24:58;;;;;;;;;1.00;1.00;;;;;;;;5090602;28;8889;-40
2021/06/17 10:27:36;;;;;;;;;1.00;1.00;;;;;;;;5092987;28;8890;-41
2021/06/17 10:30:02;;;;;;;;;1.00;1.00;;;;;;;;5100131;28;8753;-41
2021/06/17 10:32:35;;;;;;;;;1.75;1.00;;;;;;;;5093490;28;8836;-41
2021/06/17 10:35:02;;;;;;;;;1.00;1.00;;;;;;;;5101217;28;9579;-41
2021/06/17 10:37:30;;;;;;;;;0.00;0.00;;;;;;;;5091443;28;8771;-41
2021/06/17 10:40:10;;;;;;;;;1.00;1.00;;;;;;;;5101517;28;8771;-41
2021/06/17 10:42:37;;;;;;;;;1.00;1.00;;;;;;;;5096529;28;8809;-41
2021/06/17 10:45:05;;;;;;;;;1.50;1.50;;;;;;;;5100324;28;8750;-41
2021/06/17 10:47:54;;;;;;;;;1.00;1.00;;;;;;;;5092937;28;8826;-41
2021/06/17 10:50:20;;;;;;;;;1.00;1.00;;;;;;;;5100350;28;8785;-41
2021/06/17 10:52:46;;;;;;;;;0.75;0.75;;;;;;;;5093063;28;8755;-41
2021/06/17 10:55:16;;;;;;;;;2.00;2.00;;;;;;;;5093198;28;9549;-40
2021/06/17 10:57:41;;;;;;;;;0.25;0.25;;;;;;;;5093796;28;8781;-41
2021/06/17 11:00:28;;;;;;;;;0.75;0.75;;;;;;;;5095899;28;8826;-41
2021/06/17 11:02:55;;;;;;;;;2.00;2.00;;;;;;;;5077794;28;8877;-40
2021/06/17 11:05:36;;;;;;;;;1.00;1.00;;;;;;;;5095502;28;8772;-41
2021/06/17 11:08:14;;;;;;;;;1.00;1.00;;;;;;;;5097234;28;8767;-41
2021/06/17 11:10:48;;;;;;;;;1.00;1.00;;;;;;;;5093001;28;8803;-41
2021/06/17 11:13:27;;;;;;;;;0.25;0.25;;;;;;;;5099811;28;8902;-41
2021/06/17 11:15:52;;;;;;;;;1.00;1.00;;;;;;;;5093245;28;8936;-41
2021/06/17 11:18:37;;;;;;;;;0.00;0.00;;;;;;;;5096769;28;8914;-41
2021/06/17 11:21:03;;;;;;;;;0.25;0.25;;;;;;;;5091792;28;9601;-41
2021/06/17 11:23:28;;;;;;;;;0.67;0.67;;;;;;;;5095181;28;8793;-40
2021/06/17 11:25:56;;;;;;;;;0.00;0.00;;;;;;;;5090166;28;9523;-41
2021/06/17 11:28:22;;;;;;;;;1.00;1.00;;;;;;;;5103855;28;8879;-41
2021/06/17 11:30:53;;;;;;;;;1.00;1.00;;;;;;;;5096813;28;9563;-41
2021/06/17 11:33:24;;;;;;;;;0.00;0.00;;;;;;;;5087557;28;8809;-41
2021/06/17 11:35:53;;;;;;;;;1.00;1.00;;;;;;;;5089605;28;8744;-41
2021/06/17 11:38:22;;;;;;;;;1.00;1.00;;;;;;;;5096100;28;8761;-41
2021/06/17 11:40:47;;;;;;;;;1.00;0.50;;;;;;;;5090928;28;8757;-41
2021/06/17 11:43:13;;;;;;;;;1.00;1.00;;;;;;;;5097606;28;8801;-41
2021/06/17 11:45:38;;;;;;;;;0.00;0.00;;;;;;;;5092089;28;8755;-41
2021/06/17 11:48:07;;;;;;;;;1.00;1.00;;;;;;;;5099928;28;8782;-41
2021/06/17 11:50:32;;;;;;;;;0.50;0.50;;;;;;;;5092866;28;8790;-41
2021/06/17 11:52:58;;;;;;;;;0.00;0.00;;;;;;;;5099996;28;8816;-41
2021/06/17 11:55:25;;;;;;;;;0.00;0.00;;;;;;;;5091958;28;8902;-41
2021/06/17 11:57:50;;;;;;;;;0.50;0.50;;;;;;;;5098344;28;9466;-40
2021/06/17 12:00:27;;;;;;;;;0.00;0.00;;;;;;;;5090865;28;8812;-41
2021/06/17 12:02:52;;;;;;;;;0.50;0.00;;;;;;;;5097339;28;8765;-41
2021/06/17 12:05:21;;;;;;;;;0.67;0.67;;;;;;;;5091381;28;8766;-41
2021/06/17 12:07:47;;;;;;;;;0.00;0.00;;;;;;;;5099407;28;9478;-41
2021/06/17 12:10:17;;;;;;;;;0.00;0.00;;;;;;;;5098362;28;8829;-41
2021/06/17 12:12:52;;;;;;;;;0.50;0.50;;;;;;;;5097796;28;8808;-40
2021/06/17 12:15:19;;;;;;;;;0.50;0.50;;;;;;;;5092036;28;8893;-41
2021/06/17 12:17:49;;;;;;;;;0.00;0.00;;;;;;;;5095714;28;8755;-41
2021/06/17 12:20:20;;;;;;;;;0.00;0.00;;;;;;;;5093553;28;9607;-41
2021/06/17 12:22:47;;;;;;;;;0.00;0.00;;;;;;;;5096924;28;11507;-40
2021/06/17 12:25:13;;;;;;;;;0.00;0.00;;;;;;;;5075767;28;8807;-40
2021/06/17 12:27:45;;;;;;;;;0.00;0.00;;;;;;;;5095300;28;8779;-42
2021/06/17 12:30:21;;;;;;;;;0.00;0.00;;;;;;;;5097051;28;8809;-42
2021/06/17 12:32:46;;;;;;;;;1.00;1.00;;;;;;;;5093059;28;9564;-41
2021/06/17 12:35:13;;;;;;;;;0.00;0.00;;;;;;;;5086616;28;8801;-41
2021/06/17 12:37:55;;;;;;;;;0.00;0.00;;;;;;;;5094355;28;8762;-41
2021/06/17 12:40:30;;;;;;;;;0.00;0.00;;;;;;;;5095975;28;8759;-44
2021/06/17 12:43:03;;;;;;;;;1.00;1.00;;;;;;;;5093768;28;8777;-41
2021/06/17 12:45:28;;;;;;;;;0.00;0.00;;;;;;;;5094597;28;8791;-41
2021/06/17 12:47:54;;;;;;;;;0.00;0.00;;;;;;;;5081531;28;8800;-41
2021/06/17 12:53:06;;;;;;;;;0.00;0.00;;;;;;;;5090958;28;11289;-41
2021/06/17 12:55:38;;;;;;;;;0.00;0.00;;;;;;;;5093089;28;8820;-41
2021/06/17 12:58:03;;;;;;;;;0.00;0.00;;;;;;;;5090930;28;8832;-41
2021/06/17 13:00:28;;;;;;;;;0.00;0.00;;;;;;;;5089198;28;8791;-42
2021/06/17 13:02:54;;;;;;;;;0.00;0.00;;;;;;;;5087164;28;8776;-39
2021/06/17 13:05:24;;;;;;;;;0.75;0.75;;;;;;;;5095236;28;8768;-41
2021/06/17 13:08:03;;;;;;;;;0.00;0.00;;;;;;;;5090925;28;8758;-40
2021/06/17 13:10:30;;;;;;;;;0.00;0.00;;;;;;;;5094778;28;8771;-41
2021/06/17 13:13:12;;;;;;;;;0.50;0.50;;;;;;;;5090311;28;8799;-41
2021/06/17 13:15:37;;;;;;;;;0.00;0.00;;;;;;;;5076945;28;8802;-41
2021/06/17 13:18:07;;;;;;;;;0.00;0.00;;;;;;;;5067269;28;8786;-41
2021/06/17 13:20:34;;;;;;;;;1.00;1.00;;;;;;;;5074466;28;8793;-41
2021/06/17 13:23:03;;;;;;;;;0.00;0.00;;;;;;;;5078663;28;8796;-42
2021/06/17 13:25:32;;;;;;;;;0.00;0.00;;;;;;;;5078771;28;8783;-42
2021/06/17 13:27:59;;;;;;;;;1.00;1.00;;;;;;;;5078980;28;8799;-41
2021/06/17 13:30:26;;;;;;;;;0.00;0.00;;;;;;;;5079797;28;9481;-41
2021/06/17 13:32:52;;;;;;;;;0.50;0.50;;;;;;;;5079302;28;9349;-41
2021/06/17 13:35:17;;;;;;;;;0.00;0.00;;;;;;;;5078656;28;9335;-41
2021/06/17 13:37:42;;;;;;;;;0.33;0.33;;;;;;;;5078852;28;11210;-41
2021/06/17 13:40:08;;;;;;;;;0.00;0.00;;;;;;;;5079913;28;8916;-41
2021/06/17 13:42:34;;;;;;;;;0.67;0.67;;;;;;;;5078423;28;8806;-41
2021/06/17 13:44:59;;;;;;;;;0.25;0.25;;;;;;;;5077947;28;8782;-41
2021/06/17 13:47:25;;;;;;;;;1.00;1.00;;;;;;;;5079047;28;8937;-42
2021/06/17 13:49:50;;;;;;;;;0.00;0.00;;;;;;;;5080078;28;8791;-41
2021/06/17 13:52:17;;;;;;;;;0.25;0.25;;;;;;;;5080980;28;8799;-41
2021/06/17 13:54:42;;;;;;;;;0.00;0.00;;;;;;;;5081732;28;8779;-41
2021/06/17 13:57:13;;;;;;;;;0.00;0.00;;;;;;;;5080110;28;8828;-41
2021/06/17 13:59:41;;;;;;;;;0.00;0.00;;;;;;;;5080038;28;8777;-41
2021/06/17 14:02:07;;;;;;;;;0.00;0.00;;;;;;;;5082519;28;8795;-41
2021/06/17 14:04:33;;;;;;;;;0.00;0.00;;;;;;;;5079270;28;8912;-41
2021/06/17 14:06:58;;;;;;;;;0.00;0.00;;;;;;;;5082210;28;8888;-41
2021/06/17 14:09:23;;;;;;;;;0.00;0.00;;;;;;;;5080014;28;8809;-41
2021/06/17 14:11:48;;;;;;;;;0.00;0.00;;;;;;;;5080421;28;8778;-42
2021/06/17 14:14:13;;;;;;;;;0.67;0.67;;;;;;;;5080667;28;8821;-42
2021/06/17 14:16:39;;;;;;;;;0.00;0.00;;;;;;;;5079329;28;8787;-40
2021/06/17 14:19:04;;;;;;;;;0.00;0.00;;;;;;;;5079952;28;10638;-42
2021/06/17 14:21:29;;;;;;;;;0.00;0.00;;;;;;;;5080753;28;8945;-42
2021/06/17 14:23:55;;;;;;;;;0.00;0.00;;;;;;;;5078830;28;8919;-40
2021/06/17 14:26:20;;;;;;;;;0.00;0.00;;;;;;;;5081602;28;8781;-41
2021/06/17 14:28:45;;;;;;;;;0.00;0.00;;;;;;;;5078649;28;8765;-41
2021/06/17 14:31:11;;;;;;;;;0.00;0.00;;;;;;;;5081720;28;8798;-41
2021/06/17 14:33:37;;;;;;;;;0.00;0.00;;;;;;;;5075110;28;8946;-40
2021/06/17 14:36:03;;;;;;;;;0.00;0.00;;;;;;;;5081102;28;8803;-41
2021/06/17 14:38:28;;;;;;;;;1.00;1.00;;;;;;;;5080069;28;8813;-41
2021/06/17 14:40:53;;;;;;;;;0.67;0.67;;;;;;;;5083916;28;8790;-40
2021/06/17 14:43:18;;;;;;;;;0.00;0.00;;;;;;;;5083243;28;8784;-41
2021/06/17 14:45:44;;;;;;;;;0.00;0.00;;;;;;;;5082898;28;8800;-41
2021/06/17 14:48:09;;;;;;;;;0.00;0.00;;;;;;;;5081470;28;8782;-40
2021/06/17 14:50:35;;;;;;;;;0.00;0.00;;;;;;;;5085321;28;9490;-41
2021/06/17 14:53:00;;;;;;;;;0.00;0.00;;;;;;;;5080023;28;8884;-41
2021/06/17 14:55:25;;;;;;;;;0.33;0.00;;;;;;;;5081976;28;9544;-40
2021/06/17 14:57:50;;;;;;;;;0.00;0.00;;;;;;;;5081581;28;8793;-41
2021/06/17 15:00:16;;;;;;;;;0.00;0.00;;;;;;;;5081917;28;8820;-41